Time;durP1;ratioP1;P1;durP2;ratioP2;P2;SDS_P1;SDS_P2;PMS_P1;PMS_P2;Temp;Humidity;BMP_temperature;BMP_pressure;BME280_temperature;BME280_humidity;BME280_pressure;Samples;Min_cycle;Max_cycle;Signal;HPM_P1;HPM_P2
2023/09/03 00:00:40;;;;;;;7.30;4.30;;;;;;;11.62;100.00;101490.52;105880;1255;72464;-53
2023/09/03 00:03:07;;;;;;;13.00;4.40;;;;;;;11.58;100.00;101484.65;105879;1256;61990;-50
2023/09/03 00:05:34;;;;;;;5.90;4.40;;;;;;;11.56;100.00;101484.33;105912;1256;60431;-52
2023/09/03 00:08:03;;;;;;;7.20;4.60;;;;;;;11.56;100.00;101485.71;105891;1253;72696;-51
2023/09/03 00:10:34;;;;;;;10.30;4.20;;;;;;;11.57;100.00;101480.35;105922;1256;64577;-50
2023/09/03 00:13:03;;;;;;;7.90;5.10;;;;;;;11.59;100.00;101479.80;105917;1256;72636;-51
2023/09/03 00:15:30;;;;;;;5.40;4.30;;;;;;;11.59;100.00;101473.94;105900;1253;60531;-51
2023/09/03 00:17:57;;;;;;;7.60;4.00;;;;;;;11.57;100.00;101466.67;105940;1252;60475;-51
2023/09/03 00:20:24;;;;;;;5.70;4.20;;;;;;;11.56;100.00;101471.54;105902;1256;73646;-52
2023/09/03 00:22:52;;;;;;;7.90;4.30;;;;;;;11.54;100.00;101468.09;105929;1254;64766;-51
2023/09/03 00:25:19;;;;;;;8.10;4.90;;;;;;;11.53;100.00;101462.92;105936;1253;72538;-52
2023/09/03 00:27:46;;;;;;;9.10;4.80;;;;;;;11.51;100.00;101462.23;105923;1256;60875;-52
2023/09/03 00:30:13;;;;;;;7.80;4.50;;;;;;;11.49;100.00;101459.48;105935;1253;60447;-52
2023/09/03 00:32:40;;;;;;;13.80;5.10;;;;;;;11.48;100.00;101454.46;105876;1253;73788;-51
2023/09/03 00:35:08;;;;;;;8.40;4.10;;;;;;;11.48;100.00;101449.95;105709;1259;64763;-51
2023/09/03 00:37:35;;;;;;;7.70;4.40;;;;;;;11.47;100.00;101449.45;105674;1253;72619;-52
2023/09/03 00:40:02;;;;;;;7.40;4.70;;;;;;;11.46;100.00;101448.24;105900;1253;61836;-50
2023/09/03 00:42:30;;;;;;;7.90;4.90;;;;;;;11.44;100.00;101445.67;105943;1252;60408;-52
2023/09/03 00:44:57;;;;;;;14.40;5.10;;;;;;;11.42;100.00;101442.75;105902;1253;72643;-50
2023/09/03 00:47:24;;;;;;;9.50;5.20;;;;;;;11.39;100.00;101443.64;105941;1256;64668;-50
2023/09/03 00:49:51;;;;;;;9.30;4.40;;;;;;;11.36;100.00;101448.14;105878;1256;72590;-50
2023/09/03 00:52:19;;;;;;;7.60;4.80;;;;;;;11.37;100.00;101444.50;105657;1257;62064;-51
2023/09/03 00:54:46;;;;;;;9.90;4.10;;;;;;;11.40;100.00;101440.67;105911;1254;60426;-52
2023/09/03 00:57:13;;;;;;;9.30;3.90;;;;;;;11.41;100.00;101439.48;105712;1253;73816;-51
2023/09/03 00:59:40;;;;;;;9.40;4.50;;;;;;;11.40;100.00;101436.21;105965;1256;64678;-50
2023/09/03 01:02:08;;;;;;;6.60;4.60;;;;;;;11.41;100.00;101432.73;105697;1253;72328;-50
2023/09/03 01:04:35;;;;;;;10.00;4.80;;;;;;;11.48;100.00;101428.54;105920;1256;61914;-51
2023/09/03 01:07:03;;;;;;;7.40;4.40;;;;;;;11.53;100.00;101426.45;105929;1252;60467;-50
2023/09/03 01:09:30;;;;;;;12.90;4.90;;;;;;;11.56;100.00;101423.14;105947;1251;73897;-50
2023/09/03 01:12:12;;;;;;;10.20;4.40;;;;;;;11.61;100.00;101421.70;105907;1256;64586;-52
2023/09/03 01:14:44;;;;;;;10.50;4.80;;;;;;;11.64;100.00;101421.69;105891;1253;72564;-51
2023/09/03 01:17:13;;;;;;;11.10;4.50;;;;;;;11.66;100.00;101415.64;105923;1256;60811;-51
2023/09/03 01:20:15;;;;;;;7.20;3.90;;;;;;;11.68;100.00;101406.61;105910;1253;60534;-53
2023/09/03 01:23:06;;;;;;;8.50;4.10;;;;;;;11.66;100.00;101408.71;105601;1253;73855;-49
2023/09/03 01:26:02;;;;;;;6.50;4.60;;;;;;;11.67;100.00;101403.52;105890;1256;64679;-53
2023/09/03 01:28:30;;;;;;;7.20;4.20;;;;;;;11.67;100.00;101403.34;105855;1253;72572;-49
2023/09/03 01:31:02;;;;;;;5.50;3.80;;;;;;;11.71;100.00;101397.95;105694;1268;61926;-56
2023/09/03 01:33:31;;;;;;;4.70;4.00;;;;;;;11.79;100.00;101392.70;105847;1253;60430;-56
2023/09/03 01:35:59;;;;;;;9.10;4.50;;;;;;;11.81;100.00;101390.61;105694;1253;72380;-51
2023/09/03 01:38:26;;;;;;;9.70;4.10;;;;;;;11.77;100.00;101385.28;105749;1256;64725;-53
2023/09/03 01:40:55;;;;;;;8.40;4.20;;;;;;;11.73;100.00;101380.82;105954;1253;72676;-51
2023/09/03 01:43:22;;;;;;;6.80;4.40;;;;;;;11.69;100.00;101383.62;105918;1253;60444;-50
2023/09/03 01:45:56;;;;;;;5.70;4.50;;;;;;;11.65;100.00;101379.66;105927;1256;60342;-51
2023/09/03 01:48:44;;;;;;;4.50;3.70;;;;;;;11.67;100.00;101381.73;105900;1253;73788;-51
2023/09/03 01:51:26;;;;;;;9.10;4.00;;;;;;;11.70;100.00;101381.02;105441;1257;64640;-51
2023/09/03 01:54:18;;;;;;;9.80;4.00;;;;;;;11.71;100.00;101378.58;105716;1253;72663;-50
2023/09/03 01:56:59;;;;;;;5.70;3.90;;;;;;;11.73;100.00;101375.45;105695;1253;61907;-49
2023/09/03 01:59:43;;;;;;;4.30;3.90;;;;;;;11.73;100.00;101369.57;105661;1253;60402;-52
2023/09/03 02:02:10;;;;;;;6.90;3.90;;;;;;;11.73;100.00;101365.77;105690;1253;72669;-49
2023/09/03 02:04:37;;;;;;;8.00;4.00;;;;;;;11.71;100.00;101361.11;105696;1259;64690;-51
2023/09/03 02:07:04;;;;;;;5.40;3.40;;;;;;;11.70;100.00;101358.02;105681;1258;72333;-49
2023/09/03 02:09:32;;;;;;;11.70;4.30;;;;;;;11.66;100.00;101358.91;105663;1257;61945;-50
2023/09/03 02:11:58;;;;;;;5.30;3.90;;;;;;;11.63;100.00;101359.47;105708;1253;60435;-52
2023/09/03 02:14:26;;;;;;;5.90;4.20;;;;;;;11.59;100.00;101368.46;105687;1254;73740;-50
2023/09/03 02:16:53;;;;;;;10.00;4.10;;;;;;;11.57;100.00;101369.52;105674;1256;64673;-50
2023/09/03 02:19:20;;;;;;;9.20;3.60;;;;;;;11.54;100.00;101373.02;105755;1256;72553;-50
2023/09/03 02:21:48;;;;;;;9.00;4.10;;;;;;;11.48;100.00;101379.27;105728;1257;61818;-51
2023/09/03 02:24:15;;;;;;;6.30;4.70;;;;;;;11.40;100.00;101378.98;105703;1253;60419;-49
2023/09/03 02:26:43;;;;;;;7.30;4.40;;;;;;;11.32;100.00;101378.89;105691;1256;74255;-51
2023/09/03 02:29:10;;;;;;;6.10;4.80;;;;;;;11.24;100.00;101383.77;105694;1259;63337;-51
2023/09/03 02:31:37;;;;;;;4.30;3.90;;;;;;;11.17;100.00;101385.02;105638;1253;72706;-50
2023/09/03 02:34:05;;;;;;;4.40;4.00;;;;;;;11.13;100.00;101384.00;105679;1257;61961;-50
2023/09/03 02:36:34;;;;;;;6.70;3.80;;;;;;;11.10;100.00;101385.40;105774;1253;60515;-51
2023/09/03 02:39:01;;;;;;;5.30;3.90;;;;;;;11.10;100.00;101383.15;105706;1257;73631;-48
2023/09/03 02:41:32;;;;;;;6.50;4.10;;;;;;;11.10;100.00;101383.33;105734;1258;64637;-50
2023/09/03 02:44:00;;;;;;;5.10;4.20;;;;;;;11.10;100.00;101385.23;105650;1253;72652;-50
2023/09/03 02:46:28;;;;;;;8.50;4.10;;;;;;;11.11;100.00;101379.86;105697;1257;60818;-49
2023/09/03 02:48:55;;;;;;;11.40;3.80;;;;;;;11.11;100.00;101372.61;105719;1253;60445;-49
2023/09/03 02:51:22;;;;;;;5.80;3.80;;;;;;;11.11;100.00;101372.62;105710;1256;73923;-51
2023/09/03 02:53:51;;;;;;;7.50;3.30;;;;;;;11.11;100.00;101369.85;105740;1257;64605;-49
2023/09/03 02:56:18;;;;;;;8.20;3.80;;;;;;;11.08;100.00;101372.80;105746;1253;71482;-51
2023/09/03 02:58:48;;;;;;;6.20;4.20;;;;;;;11.05;100.00;101373.69;105668;1259;60374;-50
2023/09/03 03:01:17;;;;;;;6.40;3.40;;;;;;;11.04;100.00;101378.19;105709;1253;60541;-50
2023/09/03 03:03:44;;;;;;;8.00;3.80;;;;;;;11.02;100.00;101374.58;105764;1257;73767;-51
2023/09/03 03:06:12;;;;;;;6.50;3.50;;;;;;;11.00;100.00;101374.93;105745;1257;64868;-51
2023/09/03 03:08:39;;;;;;;10.50;4.00;;;;;;;10.96;100.00;101378.05;105656;1253;72523;-49
2023/09/03 03:11:10;;;;;;;4.60;4.00;;;;;;;10.94;100.00;101383.77;105627;1256;60519;-50
2023/09/03 03:13:41;;;;;;;5.80;4.10;;;;;;;10.92;100.00;101390.67;105730;1253;60409;-52
2023/09/03 03:16:11;;;;;;;8.40;4.40;;;;;;;10.89;100.00;101395.02;105695;1253;72400;-52
2023/09/03 03:18:43;;;;;;;9.50;3.80;;;;;;;10.90;100.00;101394.66;105796;1257;64768;-50
2023/09/03 03:21:14;;;;;;;4.20;3.80;;;;;;;10.92;100.00;101393.96;105680;1257;72832;-52
2023/09/03 03:23:47;;;;;;;8.40;3.50;;;;;;;10.95;100.00;101398.78;105664;1253;61773;-50
2023/09/03 03:26:15;;;;;;;7.20;4.10;;;;;;;10.97;100.00;101392.55;105719;1253;60579;-50
2023/09/03 03:28:42;;;;;;;10.40;3.70;;;;;;;10.99;100.00;101397.20;105727;1253;74306;-50
2023/09/03 03:31:10;;;;;;;6.00;3.70;;;;;;;11.00;100.00;101395.65;105686;1258;63468;-52
2023/09/03 03:33:39;;;;;;;6.60;4.20;;;;;;;10.98;100.00;101399.45;105702;1253;72758;-49
2023/09/03 03:36:06;;;;;;;6.90;3.90;;;;;;;10.96;100.00;101397.39;105682;1259;61772;-51
2023/09/03 03:38:33;;;;;;;5.70;3.90;;;;;;;10.97;100.00;101400.66;105729;1253;60359;-51
2023/09/03 03:41:09;;;;;;;9.20;3.50;;;;;;;10.99;100.00;101403.59;105689;1257;73689;-51
2023/09/03 03:43:38;;;;;;;7.20;3.90;;;;;;;11.02;100.00;101406.36;105682;1253;63575;-51
2023/09/03 03:46:06;;;;;;;6.70;4.30;;;;;;;11.05;100.00;101406.67;105710;1253;72655;-51
2023/09/03 03:48:33;;;;;;;13.20;4.20;;;;;;;11.08;100.00;101405.80;105698;1256;60613;-50
2023/09/03 03:51:01;;;;;;;11.50;4.30;;;;;;;11.14;100.00;101405.77;105721;1253;60462;-50
2023/09/03 03:53:28;;;;;;;4.90;3.80;;;;;;;11.20;100.00;101410.56;105730;1257;74151;-50
2023/09/03 03:56:00;;;;;;;12.10;4.30;;;;;;;11.27;100.00;101408.98;105805;1257;63525;-51
2023/09/03 03:58:28;;;;;;;7.00;3.80;;;;;;;11.34;100.00;101406.51;105678;1253;72773;-51
2023/09/03 04:00:55;;;;;;;9.60;4.30;;;;;;;11.42;100.00;101408.71;105750;1253;61679;-50
2023/09/03 04:03:23;;;;;;;7.50;3.90;;;;;;;11.51;100.00;101411.77;105728;1253;60530;-53
2023/09/03 04:06:00;;;;;;;6.80;3.90;;;;;;;11.61;100.00;101407.36;105660;1254;73828;-52
2023/09/03 04:08:31;;;;;;;9.90;4.10;;;;;;;11.75;100.00;101404.83;105689;1257;63496;-56
2023/09/03 04:11:06;;;;;;;12.50;4.30;;;;;;;11.91;100.00;101406.59;105742;1253;72731;-55
2023/09/03 04:13:33;;;;;;;6.40;4.10;;;;;;;12.09;100.00;101404.91;105549;1257;273840;-52
2023/09/03 04:17:08;;;;;;;7.20;4.10;;;;;;;12.36;100.00;101405.67;102940;1292;600674;-51
2023/09/03 04:19:37;;;;;;;8.80;4.40;;;;;;;12.56;100.00;101398.88;105192;1270;59336;-49
2023/09/03 04:22:05;;;;;;;10.30;4.20;;;;;;;12.75;100.00;101394.16;105166;1264;59952;-51
2023/09/03 04:24:33;;;;;;;11.60;4.00;;;;;;;12.93;100.00;101395.13;104910;1270;72211;-50
2023/09/03 04:27:03;;;;;;;9.90;4.40;;;;;;;13.10;100.00;101392.98;105184;1268;63678;-51
2023/09/03 04:29:30;;;;;;;12.00;4.30;;;;;;;13.29;100.00;101399.66;105177;1270;71394;-51
2023/09/03 04:31:58;;;;;;;13.10;4.60;;;;;;;13.48;100.00;101402.02;105095;1265;217730;-49
2023/09/03 04:34:26;;;;;;;5.40;3.80;;;;;;;13.68;100.00;101409.50;105255;1266;59116;-51
2023/09/03 04:36:54;;;;;;;5.60;3.90;;;;;;;13.89;100.00;101413.15;105213;1261;71008;-52
2023/09/03 04:39:22;;;;;;;6.10;3.90;;;;;;;14.08;100.00;101428.79;105735;1254;63494;-51
2023/09/03 04:41:49;;;;;;;7.90;3.60;;;;;;;14.32;100.00;101455.63;105656;1260;71337;-50
2023/09/03 04:44:17;;;;;;;4.80;3.40;;;;;;;14.58;100.00;101486.22;105658;1257;60088;-51
2023/09/03 04:46:48;;;;;;;7.00;3.80;;;;;;;14.90;100.00;101530.30;106016;1249;59571;-51
2023/09/03 04:49:16;;;;;;;5.10;3.70;;;;;;;15.26;100.00;101579.82;106043;1254;71565;-52
2023/09/03 04:51:44;;;;;;;7.60;4.00;;;;;;;15.56;100.00;101663.59;106023;1251;63479;-52
2023/09/03 04:54:12;;;;;;;6.90;3.50;;;;;;;15.82;100.00;101760.86;106067;1248;72678;-51
2023/09/03 04:56:41;;;;;;;4.60;3.40;;;;;;;15.97;100.00;101833.55;106052;1251;60768;-51
2023/09/03 04:59:10;;;;;;;5.00;4.20;;;;;;;16.03;100.00;101812.36;105979;1251;59944;-51
2023/09/03 05:01:38;;;;;;;6.20;3.80;;;;;;;16.06;100.00;101669.38;105948;1257;72325;-51
2023/09/03 05:04:07;;;;;;;7.80;3.30;;;;;;;16.05;100.00;101467.80;106044;1256;63485;-50
2023/09/03 05:06:35;;;;;;;5.00;3.60;;;;;;;16.05;100.00;101323.30;106003;1257;72700;-51
2023/09/03 05:09:04;;;;;;;7.50;3.30;;;;;;;16.00;100.00;101224.90;105999;1254;61643;-51
2023/09/03 05:11:32;;;;;;;5.10;3.70;;;;;;;15.96;100.00;101198.91;105901;1257;59698;-51
2023/09/03 05:14:00;;;;;;;5.80;3.50;;;;;;;15.94;100.00;101192.17;105897;1251;71866;-50
2023/09/03 05:16:28;;;;;;;7.70;3.80;;;;;;;15.92;100.00;101184.06;106016;1256;62419;-52
2023/09/03 05:18:57;;;;;;;9.80;3.60;;;;;;;15.85;100.00;101125.77;105988;1256;70336;-52
2023/09/03 05:21:25;;;;;;;5.80;3.90;;;;;;;15.75;100.00;101071.94;105915;1256;60085;-52
2023/09/03 05:23:53;;;;;;;7.70;3.60;;;;;;;15.69;100.00;101051.09;105919;1254;59688;-52
2023/09/03 05:26:21;;;;;;;5.20;3.50;;;;;;;15.66;100.00;101057.06;105944;1257;72041;-53
2023/09/03 05:28:48;;;;;;;3.80;3.50;;;;;;;15.66;100.00;101057.40;105894;1251;64476;-51
2023/09/03 05:31:17;;;;;;;6.60;3.50;;;;;;;15.68;100.00;101059.63;105905;1257;71358;-52
2023/09/03 16:35:19;;;;;;;12.20;4.80;;;;;;;20.58;56.88;101216.08;102746;1294;600313;-50
2023/09/03 16:37:49;;;;;;;17.20;4.30;;;;;;;20.42;57.40;101264.17;105233;1269;59953;-52
2023/09/03 16:40:17;;;;;;;6.60;4.10;;;;;;;20.30;58.13;101315.18;105165;1269;59323;-53
2023/09/03 16:42:45;;;;;;;9.30;4.60;;;;;;;20.17;59.61;101389.55;105185;1265;70967;-51
2023/09/03 16:45:13;;;;;;;9.60;4.40;;;;;;;20.02;62.20;101494.76;105177;1268;63100;-49
2023/09/03 16:47:43;;;;;;;19.10;5.00;;;;;;;19.86;66.19;101631.98;105015;1267;71394;-54
2023/09/03 16:50:11;;;;;;;25.60;8.00;;;;;;;19.67;67.95;101699.58;105123;1266;59419;-52
2023/09/03 16:52:39;;;;;;;16.20;6.00;;;;;;;19.50;73.62;101824.13;105197;1273;59718;-51
2023/09/03 16:55:08;;;;;;;17.60;5.40;;;;;;;19.30;79.92;101926.29;105221;1266;70940;-53
2023/09/03 16:57:37;;;;;;;12.60;6.10;;;;;;;19.08;88.46;102005.70;105241;1266;64984;-58
2023/09/03 17:00:06;;;;;;;21.30;10.50;;;;;;;18.87;99.40;102079.74;105934;1253;71851;-51
2023/09/03 17:02:34;;;;;;;22.80;6.90;;;;;;;18.65;100.00;102120.36;105954;1254;61587;-57
2023/09/03 17:05:03;;;;;;;46.90;9.40;;;;;;;18.47;100.00;102139.51;105926;1256;59537;-52
2023/09/03 17:07:31;;;;;;;24.20;8.30;;;;;;;18.34;100.00;102134.95;105858;1257;71803;-53
2023/09/03 17:09:59;;;;;;;31.40;8.20;;;;;;;18.24;100.00;102140.58;105863;1256;63508;-52
2023/09/03 17:12:26;;;;;;;25.90;8.80;;;;;;;18.15;100.00;102144.11;105915;1257;71899;-51
2023/09/03 17:14:54;;;;;;;28.00;9.50;;;;;;;18.07;100.00;102102.73;105934;1257;59694;-52
2023/09/03 17:17:22;;;;;;;22.50;10.90;;;;;;;18.02;100.00;102035.97;105855;1254;59599;-53
2023/09/03 17:19:50;;;;;;;24.50;11.40;;;;;;;17.96;100.00;101923.11;105906;1256;73001;-53
2023/09/03 17:22:17;;;;;;;21.60;12.50;;;;;;;17.90;100.00;101760.88;105945;1256;63120;-51
2023/09/03 17:24:47;;;;;;;22.30;11.90;;;;;;;17.84;100.00;101578.96;105924;1255;72740;-50
2023/09/03 17:27:15;;;;;;;28.80;11.70;;;;;;;17.79;100.00;101420.91;105944;1257;59686;-49
2023/09/03 17:29:43;;;;;;;31.80;11.80;;;;;;;17.76;100.00;101288.17;105892;1254;59995;-53
2023/09/03 17:32:10;;;;;;;23.80;12.60;;;;;;;17.74;100.00;101180.24;105872;1260;71805;-49
2023/09/03 17:34:38;;;;;;;30.00;13.40;;;;;;;17.70;100.00;101085.63;105914;1257;66370;-50
2023/09/03 17:37:06;;;;;;;35.90;15.60;;;;;;;17.66;100.00;101015.59;105848;1257;73605;-52
2023/09/03 17:39:33;;;;;;;32.40;15.00;;;;;;;17.63;100.00;100951.15;105892;1254;60585;-51
2023/09/03 17:42:01;;;;;;;33.00;13.90;;;;;;;17.61;100.00;100910.08;105917;1258;59957;-51
2023/09/03 17:44:29;;;;;;;33.00;15.70;;;;;;;17.55;100.00;100872.98;105891;1257;72859;-50
2023/09/03 17:46:57;;;;;;;41.30;15.70;;;;;;;17.48;100.00;100848.46;105928;1257;65399;-51
2023/09/03 17:49:24;;;;;;;38.60;15.50;;;;;;;17.41;100.00;100821.38;105861;1260;71842;-50
2023/09/03 17:51:52;;;;;;;30.60;14.10;;;;;;;17.31;100.00;100799.09;105831;1254;60004;-51
2023/09/03 17:54:20;;;;;;;24.20;13.50;;;;;;;17.20;100.00;100772.01;105839;1257;59625;-52
2023/09/03 17:56:48;;;;;;;33.20;10.80;;;;;;;17.07;100.00;100754.91;105830;1259;73277;-51
2023/09/03 17:59:15;;;;;;;18.50;7.80;;;;;;;16.96;100.00;100743.99;105867;1257;64317;-51
2023/09/03 18:01:45;;;;;;;22.80;11.20;;;;;;;16.87;100.00;100720.66;105861;1258;71449;-53
2023/09/03 18:04:13;;;;;;;32.90;11.60;;;;;;;16.79;100.00;100694.63;105883;1254;60001;-51
2023/09/03 18:06:41;;;;;;;27.70;11.30;;;;;;;16.70;100.00;100672.53;105854;1257;59625;-52
2023/09/03 18:09:10;;;;;;;14.60;7.10;;;;;;;16.60;100.00;100651.49;105881;1257;71232;-53
2023/09/03 18:11:37;;;;;;;13.40;5.70;;;;;;;16.51;100.00;100639.85;105898;1254;65281;-51
2023/09/03 18:14:05;;;;;;;12.50;6.60;;;;;;;16.45;100.00;100626.84;105823;1257;72639;-53
2023/09/03 18:16:34;;;;;;;16.40;6.70;;;;;;;16.43;100.00;100624.15;105914;1254;61975;-52
2023/09/03 18:19:02;;;;;;;9.90;6.10;;;;;;;16.43;100.00;100624.69;105888;1255;59698;-53
2023/09/03 18:21:30;;;;;;;12.90;5.40;;;;;;;16.39;100.00;100619.42;105850;1256;73548;-51
2023/09/03 18:23:59;;;;;;;7.90;5.70;;;;;;;16.35;100.00;100614.35;105918;1254;63511;-49
2023/09/03 18:26:27;;;;;;;20.60;7.30;;;;;;;16.30;100.00;100600.83;105891;1257;72647;-53
2023/09/03 18:28:56;;;;;;;16.60;7.50;;;;;;;16.24;100.00;100595.32;105861;1257;61862;-50
2023/09/03 18:31:24;;;;;;;16.60;8.00;;;;;;;16.16;100.00;100593.88;105905;1256;61046;-53
2023/09/03 18:33:52;;;;;;;15.60;9.50;;;;;;;16.05;100.00;100597.07;105839;1266;72924;-52
2023/09/03 18:36:20;;;;;;;25.70;13.70;;;;;;;15.95;100.00;100618.17;105912;1254;64279;-52
2023/09/03 18:38:48;;;;;;;40.70;18.00;;;;;;;15.84;100.00;100631.80;105943;1257;73493;-51
2023/09/03 18:41:16;;;;;;;48.00;25.10;;;;;;;15.72;100.00;100649.63;105914;1257;60458;-51
2023/09/03 18:43:45;;;;;;;34.70;14.60;;;;;;;15.64;100.00;100661.53;105918;1257;59614;-51
2023/09/03 18:46:13;;;;;;;16.70;10.40;;;;;;;15.59;100.00;100673.74;105914;1256;73630;-51
2023/09/03 18:48:40;;;;;;;27.50;7.70;;;;;;;15.55;100.00;100678.08;105862;1253;62116;-51
2023/09/03 18:51:08;;;;;;;25.00;14.70;;;;;;;15.54;100.00;100677.23;105895;1254;73587;-53
2023/09/03 18:53:36;;;;;;;15.30;8.80;;;;;;;15.52;100.00;100673.46;105873;1256;61305;-53
2023/09/03 18:56:05;;;;;;;23.30;12.20;;;;;;;15.49;100.00;100664.54;105859;1254;62074;-51
2023/09/03 18:58:33;;;;;;;10.30;6.10;;;;;;;15.45;100.00;100666.04;105909;1255;73317;-53
2023/09/03 19:01:07;;;;;;;11.80;6.10;;;;;;;15.41;100.00;100672.13;105912;1253;64532;-56
2023/09/03 19:03:35;;;;;;;8.30;5.60;;;;;;;15.38;100.00;100670.30;105918;1254;72116;-53
2023/09/03 19:06:06;;;;;;;10.00;5.90;;;;;;;15.39;100.00;100669.77;105916;1252;59681;-55
2023/09/03 19:08:34;;;;;;;14.80;5.70;;;;;;;15.38;100.00;100662.64;105879;1254;60173;-54
2023/09/03 19:11:01;;;;;;;7.70;5.20;;;;;;;15.40;100.00;100654.58;105844;1259;73138;-49
2023/09/03 19:13:29;;;;;;;10.60;6.20;;;;;;;15.43;100.00;100652.23;105892;1254;65168;-51
2023/09/03 19:15:57;;;;;;;13.10;6.70;;;;;;;15.41;100.00;100666.38;105849;1257;74758;-51
2023/09/03 19:18:25;;;;;;;16.80;6.70;;;;;;;15.37;100.00;100693.11;105847;1266;61900;-51
2023/09/03 19:20:55;;;;;;;12.60;6.60;;;;;;;15.32;100.00;100714.34;105858;1257;59566;-51
2023/09/03 19:23:22;;;;;;;9.70;5.20;;;;;;;15.27;100.00;100728.05;105947;1257;75546;-51
2023/09/03 19:25:51;;;;;;;8.70;5.80;;;;;;;15.25;100.00;100742.73;105897;1256;65188;-50
2023/09/03 19:28:19;;;;;;;13.10;6.00;;;;;;;15.22;100.00;100754.96;105907;1258;73014;-51
2023/09/03 19:30:50;;;;;;;11.80;7.00;;;;;;;15.19;100.00;100779.42;105884;1258;60569;-52
2023/09/03 19:33:19;;;;;;;11.20;6.00;;;;;;;15.14;100.00;100820.09;105910;1257;61563;-51
2023/09/03 19:35:55;;;;;;;14.70;5.80;;;;;;;15.08;100.00;100855.73;105919;1254;74081;-52
2023/09/03 19:38:25;;;;;;;11.50;6.60;;;;;;;15.04;100.00;100873.77;105908;1256;65188;-51
2023/09/03 19:40:53;;;;;;;14.20;6.40;;;;;;;15.01;100.00;100884.27;105861;1257;72553;-50
2023/09/03 19:43:24;;;;;;;9.90;6.20;;;;;;;14.99;100.00;100887.63;105915;1254;60021;-52
2023/09/03 19:45:53;;;;;;;15.30;9.30;;;;;;;14.97;100.00;100886.29;105854;1254;59525;-50
2023/09/03 19:48:25;;;;;;;23.10;10.50;;;;;;;14.96;100.00;100887.38;105908;1258;70881;-50
2023/09/03 19:50:53;;;;;;;31.20;16.20;;;;;;;14.93;100.00;100880.31;105891;1257;63394;-52
2023/09/03 19:53:21;;;;;;;25.30;13.20;;;;;;;14.92;100.00;100871.70;105879;1253;71361;-49
2023/09/03 19:55:49;;;;;;;14.30;10.50;;;;;;;14.91;100.00;100853.79;105881;1254;59742;-50
2023/09/03 19:58:17;;;;;;;17.00;8.40;;;;;;;14.90;100.00;100844.98;105868;1254;60193;-51
2023/09/03 20:00:46;;;;;;;18.50;8.50;;;;;;;14.84;100.00;100838.55;105876;1257;72976;-50
2023/09/03 20:03:14;;;;;;;13.90;8.10;;;;;;;14.77;100.00;100835.98;105909;1257;64337;-50
2023/09/03 20:05:42;;;;;;;15.50;8.30;;;;;;;14.70;100.00;100840.15;105917;1256;71599;-52
2023/09/03 20:08:11;;;;;;;26.70;10.40;;;;;;;14.67;100.00;100835.55;105824;1254;59678;-49
2023/09/03 20:10:38;;;;;;;15.80;8.60;;;;;;;14.64;100.00;100834.93;105883;1257;59599;-51
2023/09/03 20:13:07;;;;;;;16.50;9.40;;;;;;;14.62;100.00;100825.27;105875;1257;72044;-50
2023/09/03 20:15:37;;;;;;;24.60;11.80;;;;;;;14.60;100.00;100819.59;105921;1253;63138;-50
2023/09/03 20:18:06;;;;;;;20.30;11.20;;;;;;;14.59;100.00;100826.40;105872;1254;71411;-50
2023/09/03 20:20:35;;;;;;;21.20;9.80;;;;;;;14.57;100.00;100824.38;105737;1254;59998;-52
2023/09/03 20:23:03;;;;;;;25.70;12.70;;;;;;;14.53;100.00;100819.98;105909;1257;59538;-50
2023/09/03 20:25:31;;;;;;;27.20;13.40;;;;;;;14.51;100.00;100817.23;105908;1257;73002;-50
2023/09/03 20:28:00;;;;;;;19.90;9.60;;;;;;;14.53;100.00;100820.85;105870;1257;62121;-51
2023/09/03 20:30:27;;;;;;;19.10;8.50;;;;;;;14.52;100.00;100826.24;105898;1256;70635;-50
2023/09/03 20:32:56;;;;;;;16.80;7.80;;;;;;;14.50;100.00;100824.39;105896;1255;59691;-49
2023/09/03 20:35:27;;;;;;;19.10;7.60;;;;;;;14.47;100.00;100819.08;105884;1257;59618;-49
2023/09/03 20:37:55;;;;;;;13.30;7.00;;;;;;;14.44;100.00;100809.64;105865;1254;72162;-50
2023/09/03 20:40:23;;;;;;;17.80;7.40;;;;;;;14.43;100.00;100809.50;105911;1254;63269;-52
2023/09/03 20:42:51;;;;;;;15.70;6.90;;;;;;;14.41;100.00;100817.70;105836;1257;71370;-52
2023/09/03 20:45:22;;;;;;;14.00;6.80;;;;;;;14.37;100.00;100826.67;105877;1254;60414;-52
2023/09/03 20:47:50;;;;;;;11.90;6.40;;;;;;;14.32;100.00;100834.80;105956;1256;60329;-50
2023/09/03 20:50:18;;;;;;;16.20;8.10;;;;;;;14.27;100.00;100843.09;105892;1254;72624;-51
2023/09/03 20:52:47;;;;;;;13.30;7.40;;;;;;;14.21;100.00;100845.69;105884;1254;64330;-52
2023/09/03 20:55:15;;;;;;;17.60;10.00;;;;;;;14.16;100.00;100858.50;105829;1254;72578;-52
2023/09/03 20:57:42;;;;;;;15.50;9.40;;;;;;;14.10;100.00;100872.89;105833;1252;60523;-51
2023/09/03 21:00:11;;;;;;;12.30;7.40;;;;;;;14.05;100.00;100892.26;105848;1254;60404;-51
2023/09/03 21:02:40;;;;;;;13.80;6.30;;;;;;;14.01;100.00;100930.72;105863;1257;73117;-51
2023/09/03 21:05:10;;;;;;;11.20;6.00;;;;;;;13.94;100.00;100964.90;105900;1253;64342;-50
2023/09/03 21:07:37;;;;;;;10.30;5.60;;;;;;;13.85;100.00;100988.53;105933;1254;71446;-51
2023/09/03 21:10:06;;;;;;;12.50;5.40;;;;;;;13.75;100.00;101008.17;105848;1254;60552;-59
2023/09/03 21:12:34;;;;;;;12.20;5.10;;;;;;;13.69;100.00;101029.14;105899;1257;60405;-53
2023/09/03 21:15:01;;;;;;;15.40;5.70;;;;;;;13.64;100.00;101052.66;105877;1254;73777;-56
2023/09/03 21:17:33;;;;;;;14.60;5.20;;;;;;;13.62;100.00;101074.56;105845;1254;63139;-53
2023/09/03 21:20:04;;;;;;;9.40;5.60;;;;;;;13.59;100.00;101087.27;105920;1254;72687;-50
2023/09/03 21:22:35;;;;;;;10.60;5.80;;;;;;;13.56;100.00;101102.77;105913;1253;60421;-52
2023/09/03 21:25:03;;;;;;;10.60;5.90;;;;;;;13.53;100.00;101113.59;105913;1254;60433;-50
2023/09/03 21:27:31;;;;;;;10.60;5.10;;;;;;;13.50;100.00;101132.35;105898;1257;73737;-51
2023/09/03 21:29:58;;;;;;;12.40;5.20;;;;;;;13.48;100.00;101143.32;105908;1254;63249;-52
2023/09/03 21:32:27;;;;;;;11.80;5.80;;;;;;;13.45;100.00;101156.02;105873;1257;71432;-53
2023/09/03 21:34:56;;;;;;;14.10;7.00;;;;;;;13.45;100.00;101173.21;105895;1256;60425;-51
2023/09/03 21:37:36;;;;;;;15.50;6.00;;;;;;;13.45;100.00;101189.15;105881;1257;60294;-50
2023/09/03 21:40:05;;;;;;;12.00;5.40;;;;;;;13.44;100.00;101204.94;105946;1257;73929;-53
2023/09/03 21:42:33;;;;;;;10.30;4.70;;;;;;;13.41;100.00;101220.58;105863;1254;64370;-52
2023/09/03 21:45:00;;;;;;;7.10;4.40;;;;;;;13.35;100.00;101228.65;105833;1254;71912;-52
2023/09/03 21:47:28;;;;;;;6.10;5.10;;;;;;;13.29;100.00;101247.48;105910;1253;60420;-53
2023/09/03 21:49:56;;;;;;;6.50;4.90;;;;;;;13.23;100.00;101269.92;105864;1258;60536;-50
2023/09/03 21:52:23;;;;;;;6.60;4.80;;;;;;;13.17;100.00;101287.70;105785;1254;73949;-51
2023/09/03 21:54:51;;;;;;;8.90;5.10;;;;;;;13.11;100.00;101299.75;105877;1253;64414;-50
2023/09/03 21:57:19;;;;;;;15.00;6.10;;;;;;;13.07;100.00;101313.69;105902;1256;72627;-52
2023/09/03 21:59:46;;;;;;;8.50;5.40;;;;;;;13.05;100.00;101333.98;105795;1254;60699;-52
2023/09/03 22:02:14;;;;;;;8.80;5.10;;;;;;;13.07;100.00;101382.45;105858;1256;60405;-51
2023/09/03 22:04:42;;;;;;;9.70;4.80;;;;;;;13.08;100.00;101418.67;105801;1257;73819;-51
2023/09/03 22:07:09;;;;;;;8.10;4.90;;;;;;;13.07;100.00;101447.27;105796;1254;64307;-50
2023/09/03 22:09:37;;;;;;;6.50;4.80;;;;;;;13.09;100.00;101460.23;105817;1254;72655;-51
2023/09/03 22:12:05;;;;;;;13.20;4.60;;;;;;;13.12;100.00;101465.23;105827;1254;60511;-51
2023/09/03 22:14:33;;;;;;;8.20;4.90;;;;;;;13.15;100.00;101465.20;105852;1266;60364;-50